Time;durP1;ratioP1;P1;durP2;ratioP2;P2;SDS_P1;SDS_P2;PMS_P1;PMS_P2;Temp;Humidity;BMP_temperature;BMP_pressure;BME280_temperature;BME280_humidity;BME280_pressure;Samples;Min_cycle;Max_cycle;Signal;HPM_P1;HPM_P2
2020/12/17 00:01:25;;;;;;;19.57;14.17;;;;;;;7.34;82.46;100919.41;5071641;28;20205;-65
2020/12/17 00:03:51;;;;;;;18.50;13.30;;;;;;;7.32;82.30;100916.81;5070858;28;20640;-66
2020/12/17 00:06:17;;;;;;;19.50;14.17;;;;;;;7.31;82.07;100921.25;5071348;28;20213;-66
2020/12/17 00:08:44;;;;;;;18.00;12.80;;;;;;;7.31;82.90;100915.09;5071309;28;20204;-65
2020/12/17 00:11:10;;;;;;;19.17;13.13;;;;;;;7.28;83.05;100921.38;5070883;28;20205;-67
2020/12/17 00:13:36;;;;;;;16.83;13.30;;;;;;;7.27;82.31;100916.16;5070347;28;20225;-67
2020/12/17 00:16:03;;;;;;;21.43;14.67;;;;;;;7.27;82.42;100918.81;5071282;28;20196;-67
2020/12/17 00:18:29;;;;;;;19.67;13.47;;;;;;;7.26;82.07;100915.28;5071156;28;20209;-67
2020/12/17 00:20:55;;;;;;;22.93;14.20;;;;;;;7.25;82.55;100910.91;5071410;28;20228;-67
2020/12/17 00:23:21;;;;;;;19.67;14.20;;;;;;;7.25;83.01;100912.72;5070150;28;20648;-67
2020/12/17 00:25:48;;;;;;;22.40;14.10;;;;;;;7.23;82.24;100912.78;5071318;28;20665;-67
2020/12/17 00:28:14;;;;;;;18.73;13.30;;;;;;;7.21;82.66;100911.13;5071064;28;20201;-67
2020/12/17 00:30:40;;;;;;;21.80;15.17;;;;;;;7.19;82.53;100905.88;5071168;28;20565;-67
2020/12/17 00:33:06;;;;;;;21.77;13.57;;;;;;;7.17;82.63;100899.78;5070774;28;20221;-66
2020/12/17 00:35:32;;;;;;;19.47;13.80;;;;;;;7.15;83.09;100906.13;5071093;28;20201;-66
2020/12/17 00:37:58;;;;;;;24.70;15.77;;;;;;;7.16;82.30;100910.50;5071010;28;20201;-66
2020/12/17 00:40:25;;;;;;;23.80;15.60;;;;;;;7.17;82.85;100906.88;5067834;28;20243;-66
2020/12/17 00:42:51;;;;;;;22.87;15.63;;;;;;;7.18;82.79;100905.97;5070010;28;20222;-66
2020/12/17 00:45:18;;;;;;;23.03;14.87;;;;;;;7.17;82.54;100905.09;5071286;28;20296;-66
2020/12/17 00:47:44;;;;;;;20.87;14.80;;;;;;;7.16;82.20;100898.09;5071026;28;20288;-66
2020/12/17 00:50:12;;;;;;;21.83;14.37;;;;;;;7.15;82.42;100899.03;5067165;28;20284;-66
2020/12/17 00:52:38;;;;;;;21.47;14.57;;;;;;;7.15;82.21;100892.88;5064206;28;20237;-66
2020/12/17 00:55:05;;;;;;;22.10;14.33;;;;;;;7.14;82.21;100892.03;5071093;28;20197;-67
2020/12/17 00:57:31;;;;;;;21.33;13.97;;;;;;;7.13;82.59;100889.44;5068041;28;20197;-66
2020/12/17 00:59:58;;;;;;;19.30;14.70;;;;;;;7.13;82.94;100897.38;5070455;28;20251;-66
2020/12/17 01:02:24;;;;;;;21.67;15.23;;;;;;;7.12;82.33;100887.72;5069681;28;20237;-66
2020/12/17 01:04:50;;;;;;;24.93;15.40;;;;;;;7.11;82.56;100886.00;5069739;28;20201;-66
2020/12/17 01:07:17;;;;;;;22.03;13.87;;;;;;;7.11;82.45;100891.28;5061376;28;20488;-66
2020/12/17 01:09:43;;;;;;;23.97;15.47;;;;;;;7.10;82.94;100893.06;5069708;28;20558;-66
2020/12/17 01:12:10;;;;;;;20.77;13.97;;;;;;;7.10;82.85;100900.16;5065227;28;20212;-66
2020/12/17 01:14:36;;;;;;;21.67;14.47;;;;;;;7.10;82.98;100901.03;5066551;28;20708;-66
2020/12/17 01:17:05;;;;;;;22.03;14.80;;;;;;;7.11;82.43;100912.47;5065837;28;20200;-66
2020/12/17 01:19:32;;;;;;;26.37;15.47;;;;;;;7.10;82.20;100910.75;5071495;28;20224;-67
2020/12/17 01:21:58;;;;;;;23.37;14.60;;;;;;;7.09;82.71;100912.53;5061647;28;20235;-66
2020/12/17 01:24:24;;;;;;;20.73;14.03;;;;;;;7.08;82.76;100912.59;5068590;28;20315;-66
2020/12/17 01:26:52;;;;;;;24.57;14.90;;;;;;;7.08;82.38;100909.97;5071312;28;20270;-66
2020/12/17 01:29:19;;;;;;;22.33;15.17;;;;;;;7.08;82.53;100913.47;5070663;28;20204;-66
2020/12/17 01:31:45;;;;;;;23.33;15.10;;;;;;;7.08;82.88;100925.84;5069147;28;20196;-66
2020/12/17 01:34:12;;;;;;;22.30;14.80;;;;;;;7.08;82.67;100928.50;5069016;28;20705;-66
2020/12/17 01:36:38;;;;;;;25.07;15.90;;;;;;;7.07;82.42;100922.34;5069298;28;20204;-66
2020/12/17 01:39:04;;;;;;;24.07;15.50;;;;;;;7.07;82.17;100919.69;5058174;28;20239;-66
2020/12/17 01:41:30;;;;;;;22.80;14.70;;;;;;;7.08;82.04;100917.91;5070619;28;20221;-65
2020/12/17 01:44:00;;;;;;;22.87;14.47;;;;;;;7.08;82.10;100913.47;5070766;28;20258;-66
2020/12/17 01:46:26;;;;;;;20.30;14.20;;;;;;;7.09;82.16;100919.63;5070894;28;20556;-66
2020/12/17 01:48:52;;;;;;;23.27;15.20;;;;;;;7.09;82.95;100925.78;5067156;28;20215;-66
2020/12/17 01:51:19;;;;;;;19.60;14.10;;;;;;;7.11;82.80;100923.06;5060125;28;20201;-66
2020/12/17 01:53:45;;;;;;;22.90;14.87;;;;;;;7.11;82.69;100917.78;5065621;28;20335;-66
2020/12/17 01:56:20;;;;;;;20.47;14.77;;;;;;;7.12;82.43;100928.31;5070600;28;20201;-67
2020/12/17 01:58:56;;;;;;;24.30;15.00;;;;;;;7.12;82.55;100932.75;5069766;28;20208;-66
2020/12/17 02:01:24;;;;;;;19.03;13.87;;;;;;;7.13;82.66;100922.09;5067592;28;20552;-66
2020/12/17 02:03:51;;;;;;;20.60;14.03;;;;;;;7.14;82.10;100918.50;5068373;28;20620;-66
2020/12/17 02:06:17;;;;;;;24.83;14.87;;;;;;;7.16;82.18;100913.16;5073227;28;20201;-66
2020/12/17 02:08:44;;;;;;;22.33;13.73;;;;;;;7.20;82.82;100925.28;5073392;28;20212;-66
2020/12/17 02:11:11;;;;;;;21.20;13.60;;;;;;;7.23;82.62;100925.16;5073447;28;20201;-66
2020/12/17 02:13:38;;;;;;;21.27;14.70;;;;;;;7.27;82.14;100932.06;5072941;28;20227;-66
2020/12/17 02:16:05;;;;;;;21.47;14.23;;;;;;;7.29;82.17;100922.25;5072930;28;20211;-66
2020/12/17 02:18:32;;;;;;;20.57;13.73;;;;;;;7.30;82.15;100923.97;5071088;28;20208;-66
2020/12/17 02:20:58;;;;;;;21.73;15.10;;;;;;;7.29;82.78;100923.09;5072532;28;20704;-66
2020/12/17 02:23:24;;;;;;;21.60;14.20;;;;;;;7.31;82.14;100928.34;5072635;28;20225;-66
2020/12/17 02:25:52;;;;;;;17.57;13.00;;;;;;;7.31;82.10;100926.56;5072696;28;20675;-66
2020/12/17 02:28:18;;;;;;;21.73;13.97;;;;;;;7.32;82.45;100919.47;5053525;28;20241;-66
2020/12/17 02:30:44;;;;;;;21.23;14.73;;;;;;;7.31;82.36;100921.25;5057607;28;20198;-66
2020/12/17 02:33:11;;;;;;;18.70;13.20;;;;;;;7.34;82.36;100914.09;5063326;28;20225;-66
2020/12/17 02:35:37;;;;;;;17.33;13.43;;;;;;;7.34;81.64;100908.78;5066881;28;20210;-66
2020/12/17 02:38:04;;;;;;;19.97;13.90;;;;;;;7.35;81.33;100899.88;5073869;28;20706;-66
2020/12/17 02:40:30;;;;;;;17.40;12.90;;;;;;;7.34;81.84;100904.34;5072367;28;20718;-66
2020/12/17 02:42:57;;;;;;;18.33;13.47;;;;;;;7.36;81.31;100889.22;5066954;28;20223;-66
2020/12/17 02:45:23;;;;;;;19.47;12.80;;;;;;;7.38;81.68;100894.44;5072820;28;20349;-66
2020/12/17 02:47:49;;;;;;;18.93;13.07;;;;;;;7.38;81.96;100887.38;5073801;28;20209;-66
2020/12/17 02:50:15;;;;;;;19.00;12.27;;;;;;;7.40;81.55;100887.28;5072309;28;20197;-66
2020/12/17 02:52:45;;;;;;;16.63;12.87;;;;;;;7.41;81.04;100887.22;5082834;22;20739;31
2020/12/17 02:55:11;;;;;;;16.87;12.17;;;;;;;7.42;81.10;100888.94;5010105;28;20223;-67
2020/12/17 02:57:37;;;;;;;20.27;13.43;;;;;;;7.44;81.13;100887.09;5013253;28;20203;-67
2020/12/17 03:00:06;;;;;;;17.17;12.73;;;;;;;7.45;81.11;100880.88;5012695;28;20654;-68
2020/12/17 03:02:32;;;;;;;17.80;12.60;;;;;;;7.47;81.48;100883.44;4997071;28;20213;-67
2020/12/17 03:04:59;;;;;;;17.17;12.77;;;;;;;7.48;80.78;100879.88;5001165;28;20223;-67
2020/12/17 03:07:25;;;;;;;16.03;12.40;;;;;;;7.49;80.68;100884.22;5007833;28;20211;-68
2020/12/17 03:09:51;;;;;;;17.00;11.97;;;;;;;7.50;80.71;100878.00;5012961;28;20245;-68
2020/12/17 03:12:17;;;;;;;15.73;11.93;;;;;;;7.51;81.12;100882.38;5011839;28;20667;-67
2020/12/17 03:14:43;;;;;;;19.77;12.30;;;;;;;7.51;80.64;100887.69;5012429;28;20700;-67
2020/12/17 03:17:10;;;;;;;18.50;13.07;;;;;;;7.52;80.23;100892.03;5012443;28;20341;-67
2020/12/17 03:19:36;;;;;;;14.77;11.60;;;;;;;7.53;80.90;100894.59;5012892;28;20748;-67
2020/12/17 03:22:02;;;;;;;17.00;11.23;;;;;;;7.53;81.01;100894.59;5012817;28;20214;-67
2020/12/17 03:24:28;;;;;;;17.17;12.00;;;;;;;7.53;80.56;100884.00;5012320;28;20231;-67
2020/12/17 03:26:54;;;;;;;15.57;11.40;;;;;;;7.55;80.41;100886.56;5013477;28;20209;-67
2020/12/17 03:29:20;;;;;;;19.23;12.40;;;;;;;7.55;81.03;100883.94;5012673;28;20203;-67
2020/12/17 03:31:47;;;;;;;16.67;11.33;;;;;;;7.56;79.86;100883.00;5012048;28;20215;-67
2020/12/17 03:34:14;;;;;;;15.80;11.23;;;;;;;7.56;80.51;100878.56;5004259;28;20227;-67
2020/12/17 03:36:40;;;;;;;16.50;11.93;;;;;;;7.56;80.26;100872.38;5005025;28;20217;-67
2020/12/17 03:39:06;;;;;;;16.77;11.87;;;;;;;7.55;80.39;100882.13;4993605;28;20218;-67
2020/12/17 03:41:32;;;;;;;16.23;12.07;;;;;;;7.56;80.61;100865.31;4992346;28;20237;-67
2020/12/17 03:43:58;;;;;;;17.00;11.77;;;;;;;7.56;79.73;100872.38;4997678;28;20235;-67
2020/12/17 03:46:24;;;;;;;17.87;11.63;;;;;;;7.55;80.11;100871.53;4998065;28;20272;-67
2020/12/17 03:48:50;;;;;;;16.60;11.77;;;;;;;7.56;79.63;100869.75;4994081;28;20295;-67
2020/12/17 03:51:17;;;;;;;15.67;11.77;;;;;;;7.56;79.23;100875.03;4996518;28;20196;-67
2020/12/17 03:53:43;;;;;;;15.83;11.03;;;;;;;7.56;79.69;100875.91;5001893;28;20299;-67
2020/12/17 03:56:09;;;;;;;14.43;11.50;;;;;;;7.55;79.68;100876.84;5000134;28;20204;-67
2020/12/17 03:58:35;;;;;;;17.77;11.90;;;;;;;7.55;80.50;100882.13;5009544;28;20592;-67
2020/12/17 04:01:01;;;;;;;15.73;10.90;;;;;;;7.55;79.36;100876.84;5012717;28;20227;-67
2020/12/17 04:03:27;;;;;;;15.47;11.07;;;;;;;7.57;79.87;100869.69;5009616;28;20229;-67
2020/12/17 04:05:53;;;;;;;16.83;10.70;;;;;;;7.58;80.01;100879.34;4993506;28;20218;-67
2020/12/17 04:08:20;;;;;;;15.00;10.50;;;;;;;7.59;80.20;100873.13;5006103;28;20213;-67
2020/12/17 04:10:46;;;;;;;16.40;11.20;;;;;;;7.59;79.84;100877.56;5006492;28;20333;-67
2020/12/17 04:13:12;;;;;;;13.77;10.33;;;;;;;7.59;79.59;100872.25;5003667;28;20229;-67
2020/12/17 04:15:38;;;;;;;14.53;10.97;;;;;;;7.58;80.09;100874.03;5011986;28;20224;-67
2020/12/17 04:18:04;;;;;;;15.23;11.03;;;;;;;7.58;79.81;100873.19;5012762;28;20265;-67
2020/12/17 04:20:30;;;;;;;14.57;10.77;;;;;;;7.59;79.25;100875.75;5009147;28;20227;-68
2020/12/17 04:22:56;;;;;;;13.23;10.40;;;;;;;7.57;79.49;100864.38;4999867;28;20207;-67
2020/12/17 04:25:23;;;;;;;15.27;9.87;;;;;;;7.58;79.49;100866.09;5011716;28;20211;-67
2020/12/17 04:27:49;;;;;;;17.53;10.43;;;;;;;7.60;79.78;100861.59;5014158;28;20950;-67
2020/12/17 04:30:15;;;;;;;12.77;9.73;;;;;;;7.60;78.91;100869.53;5013866;28;20199;-67
2020/12/17 04:32:41;;;;;;;16.57;11.10;;;;;;;7.62;79.36;100867.66;5010194;28;20730;-67
2020/12/17 04:35:07;;;;;;;13.70;10.27;;;;;;;7.61;79.43;100865.94;5010823;28;20209;-67
2020/12/17 04:37:34;;;;;;;14.33;10.57;;;;;;;7.63;79.22;100863.22;5012555;28;20214;-67
2020/12/17 04:40:00;;;;;;;12.43;9.63;;;;;;;7.63;79.34;100858.78;5010821;28;20230;-67
2020/12/17 04:42:27;;;;;;;12.50;10.40;;;;;;;7.62;78.85;100851.78;5010470;28;20723;-67
2020/12/17 04:44:54;;;;;;;14.00;10.20;;;;;;;7.63;78.57;100836.72;5009272;28;20273;-67
2020/12/17 04:47:21;;;;;;;14.20;10.27;;;;;;;7.63;78.58;100848.19;5012539;28;20252;-67
2020/12/17 04:49:50;;;;;;;13.80;9.37;;;;;;;7.64;78.33;100849.91;5011735;28;20252;-67
2020/12/17 04:52:16;;;;;;;14.57;11.17;;;;;;;7.64;78.68;100847.25;5010805;28;20211;-67
2020/12/17 04:54:42;;;;;;;14.20;10.60;;;;;;;7.64;79.16;100852.56;5009673;28;20237;-67
2020/12/17 04:57:10;;;;;;;15.37;11.03;;;;;;;7.63;78.68;100848.19;5009028;28;20217;-67
2020/12/17 04:59:43;;;;;;;13.17;9.53;;;;;;;7.64;78.64;100860.50;5008179;28;20241;-67
2020/12/17 05:02:09;;;;;;;14.40;10.17;;;;;;;7.64;79.14;100864.94;5007285;28;20231;-67
2020/12/17 05:04:37;;;;;;;15.03;10.23;;;;;;;7.63;78.31;100866.75;5010899;28;20257;-67
2020/12/17 05:07:05;;;;;;;12.10;9.63;;;;;;;7.64;79.13;100868.47;5010681;28;20202;-67
2020/12/17 05:09:32;;;;;;;14.97;10.57;;;;;;;7.64;79.25;100860.50;5011662;28;20631;-66
2020/12/17 05:11:58;;;;;;;12.20;9.93;;;;;;;7.64;78.78;100854.34;5006924;28;20206;-67
2020/12/17 05:14:24;;;;;;;13.37;9.97;;;;;;;7.65;78.47;100850.75;5010787;28;20238;-67
2020/12/17 05:16:51;;;;;;;12.67;9.80;;;;;;;7.62;78.88;100857.06;5010903;28;20206;-67
2020/12/17 05:19:17;;;;;;;13.10;9.97;;;;;;;7.61;78.13;100855.34;5011281;28;20199;-67
2020/12/17 05:21:43;;;;;;;15.97;11.00;;;;;;;7.61;78.44;100852.69;5009903;28;20203;-67
2020/12/17 05:24:09;;;;;;;14.50;9.43;;;;;;;7.62;78.78;100841.16;4999328;28;20232;-67
2020/12/17 05:26:36;;;;;;;15.03;9.90;;;;;;;7.62;78.49;100842.97;5010176;28;20204;-66
2020/12/17 05:29:03;;;;;;;14.70;9.97;;;;;;;7.61;78.38;100839.44;5010319;28;20226;-67
2020/12/17 05:31:32;;;;;;;14.00;10.37;;;;;;;7.64;78.00;100846.41;5007262;28;20947;-67
2020/12/17 05:34:02;;;;;;;12.00;10.10;;;;;;;7.64;78.88;100839.31;5009206;28;20226;-67
2020/12/17 05:36:31;;;;;;;12.53;10.13;;;;;;;7.66;78.69;100840.09;5011475;28;20198;-66
2020/12/17 05:39:05;;;;;;;14.43;10.10;;;;;;;7.66;78.15;100832.13;5007628;28;20234;-67
2020/12/17 05:41:32;;;;;;;14.70;10.23;;;;;;;7.70;78.54;100842.59;5014683;28;20202;-67
2020/12/17 05:44:08;;;;;;;13.80;9.73;;;;;;;7.71;78.28;100845.16;5014580;28;20230;-67
2020/12/17 05:46:38;;;;;;;14.93;10.13;;;;;;;7.73;77.98;100839.78;5014791;28;20697;-67
2020/12/17 05:49:13;;;;;;;14.53;10.20;;;;;;;7.75;78.05;100835.25;5008551;28;20221;-67
2020/12/17 05:51:40;;;;;;;13.27;9.87;;;;;;;7.77;77.99;100828.09;5013421;28;20205;-67
2020/12/17 05:54:09;;;;;;;14.23;9.47;;;;;;;7.80;78.11;100825.31;5013068;28;20801;-67
2020/12/17 05:56:35;;;;;;;13.07;9.77;;;;;;;7.82;78.14;100810.19;5008665;28;20207;-67
2020/12/17 05:59:04;;;;;;;14.37;10.10;;;;;;;7.83;78.18;100817.19;5013499;28;20207;-67
2020/12/17 06:01:30;;;;;;;15.77;9.97;;;;;;;7.85;78.30;100810.03;5010547;28;20234;-67
2020/12/17 06:03:56;;;;;;;14.00;10.13;;;;;;;7.85;78.24;100815.34;5013601;28;20715;-67
2020/12/17 06:06:24;;;;;;;12.60;9.50;;;;;;;7.86;78.91;100827.66;5011827;28;20273;-67
2020/12/17 06:08:51;;;;;;;13.97;10.00;;;;;;;7.88;77.84;100823.16;5010326;28;20261;-67
2020/12/17 06:11:22;;;;;;;12.93;10.20;;;;;;;7.90;78.27;100824.75;5011733;28;20203;-67
2020/12/17 06:13:53;;;;;;;13.83;9.83;;;;;;;7.92;78.20;100816.72;5012875;28;20630;-67
2020/12/17 06:16:21;;;;;;;14.97;10.73;;;;;;;7.91;78.09;100825.63;5014414;28;20214;-67
2020/12/17 06:18:51;;;;;;;15.80;10.67;;;;;;;7.90;78.11;100814.16;5013264;28;20671;-67
2020/12/17 06:21:19;;;;;;;14.60;10.03;;;;;;;7.91;77.29;100825.63;5013031;28;20726;-67
2020/12/17 06:23:46;;;;;;;12.77;9.37;;;;;;;7.93;77.71;100810.50;5012866;28;20234;-67
2020/12/17 06:26:12;;;;;;;14.03;10.07;;;;;;;7.94;78.21;100828.13;5011028;28;20210;-67
2020/12/17 06:28:47;;;;;;;14.73;10.77;;;;;;;7.94;77.58;100825.47;5013264;28;20202;-67
2020/12/17 06:31:18;;;;;;;15.27;11.13;;;;;;;7.94;77.57;100833.44;5011455;28;20202;-67
2020/12/17 06:33:45;;;;;;;13.60;9.30;;;;;;;7.95;77.84;100845.75;5008681;28;20257;-67
2020/12/17 06:36:28;;;;;;;13.63;9.70;;;;;;;7.96;77.20;100847.47;5012115;28;20202;-67
2020/12/17 06:38:55;;;;;;;13.23;9.93;;;;;;;7.97;77.77;100850.06;5010427;28;20668;-67
2020/12/17 06:41:23;;;;;;;13.37;10.00;;;;;;;7.98;78.00;100849.13;5010674;28;20726;-67
2020/12/17 06:43:50;;;;;;;12.87;9.00;;;;;;;7.99;77.40;100855.28;5006446;28;20230;-67
2020/12/17 06:46:34;;;;;;;15.43;10.17;;;;;;;8.00;77.68;100862.31;5010286;28;20659;-67
2020/12/17 06:49:01;;;;;;;15.40;10.40;;;;;;;8.01;77.62;100862.25;5006393;28;20219;-67
2020/12/17 06:51:39;;;;;;;12.90;10.00;;;;;;;8.02;77.35;100855.13;5006834;28;21296;-67
2020/12/17 06:54:08;;;;;;;15.10;10.37;;;;;;;8.02;77.18;100860.44;5009793;28;20223;-66
2020/12/17 06:56:37;;;;;;;13.13;10.13;;;;;;;8.04;77.49;100865.69;5009157;28;20210;-67
2020/12/17 06:59:14;;;;;;;17.33;11.03;;;;;;;8.04;77.68;100865.69;5013735;28;20672;-67
2020/12/17 07:01:41;;;;;;;15.57;11.07;;;;;;;8.04;77.28;100855.91;5017615;28;20202;-67
2020/12/17 07:04:07;;;;;;;14.33;10.33;;;;;;;8.05;76.70;100856.78;5007184;28;20211;-67
2020/12/17 07:06:34;;;;;;;15.33;11.67;;;;;;;8.04;76.92;100863.88;5012207;28;20207;-67
2020/12/17 07:09:00;;;;;;;15.43;11.10;;;;;;;8.05;76.81;100860.28;5012909;28;20260;-67
2020/12/17 07:11:44;;;;;;;13.57;10.33;;;;;;;8.05;76.94;100870.03;5012723;28;20215;-67
2020/12/17 07:14:18;;;;;;;15.50;11.07;;;;;;;8.05;76.66;100878.00;5009680;28;20627;-68
2020/12/17 07:16:50;;;;;;;15.73;10.97;;;;;;;8.04;77.49;100879.78;5012966;28;20671;-68
2020/12/17 07:19:21;;;;;;;15.73;11.03;;;;;;;8.04;76.59;100879.78;5013555;28;20209;-69
2020/12/17 07:21:50;;;;;;;14.90;10.47;;;;;;;8.06;76.93;100885.03;5005643;28;20210;-69
2020/12/17 07:24:28;;;;;;;13.80;10.50;;;;;;;8.07;76.68;100879.63;5005055;28;20231;-69
2020/12/17 07:26:59;;;;;;;13.97;10.47;;;;;;;8.06;77.13;100888.50;5009762;28;20206;-69
2020/12/17 07:29:43;;;;;;;16.17;11.20;;;;;;;8.08;77.50;100897.25;5005439;28;20207;-69
2020/12/17 07:32:31;;;;;;;14.63;10.57;;;;;;;8.07;76.81;100895.53;5007482;28;20199;-69
2020/12/17 07:35:00;;;;;;;14.20;10.73;;;;;;;8.07;76.46;100910.59;5006114;28;20219;-69
2020/12/17 07:37:38;;;;;;;16.73;10.77;;;;;;;8.08;77.14;100913.16;5013656;28;20210;-69
2020/12/17 07:40:15;;;;;;;18.73;11.10;;;;;;;8.08;76.76;100913.16;5009789;28;20880;-69
2020/12/17 07:42:42;;;;;;;15.80;11.07;;;;;;;8.08;76.89;100905.22;5010518;28;20293;-69
2020/12/17 07:45:09;;;;;;;13.40;9.73;;;;;;;8.09;77.00;100908.72;5007301;28;20206;-68
2020/12/17 07:47:35;;;;;;;14.77;10.90;;;;;;;8.08;76.93;100907.88;5011181;28;20195;-69
2020/12/17 07:50:02;;;;;;;15.70;11.40;;;;;;;8.09;76.78;100914.88;5011448;28;20635;-69
2020/12/17 07:52:28;;;;;;;13.97;11.20;;;;;;;8.09;76.37;100914.03;5009579;28;20221;-68
2020/12/17 07:54:54;;;;;;;13.90;10.37;;;;;;;8.08;76.97;100929.09;5009985;28;20239;-69
2020/12/17 07:57:20;;;;;;;16.47;11.23;;;;;;;8.08;76.49;100929.09;5011250;28;20209;-68
2020/12/17 07:59:47;;;;;;;14.73;10.57;;;;;;;8.07;76.85;100922.06;5011575;28;20231;-69
2020/12/17 08:02:14;;;;;;;20.73;10.90;;;;;;;8.06;77.00;100930.94;5010123;28;20210;-69
2020/12/17 08:04:45;;;;;;;13.90;9.90;;;;;;;8.07;76.50;100931.81;5009856;28;20231;-69
2020/12/17 08:07:11;;;;;;;12.70;10.10;;;;;;;8.08;76.46;100945.00;5010769;28;20206;-69
2020/12/17 08:09:38;;;;;;;17.97;12.00;;;;;;;8.07;77.16;100943.28;5008928;28;20833;-69
2020/12/17 08:12:07;;;;;;;13.03;10.40;;;;;;;8.07;76.50;100951.25;5009477;28;20203;-69
2020/12/17 08:14:33;;;;;;;14.80;10.63;;;;;;;8.06;76.22;100957.47;5009997;28;20284;-69
2020/12/17 08:17:08;;;;;;;18.90;12.43;;;;;;;8.07;76.90;100964.50;5007778;28;20268;-69
2020/12/17 08:19:34;;;;;;;17.93;11.73;;;;;;;8.06;75.97;100965.44;5010993;28;20297;-69
2020/12/17 08:22:02;;;;;;;17.17;11.37;;;;;;;8.07;76.02;100961.84;5010259;28;20199;-69
2020/12/17 08:24:28;;;;;;;15.80;10.87;;;;;;;8.07;77.23;100963.63;5010461;28;20233;-69
2020/12/17 08:26:54;;;;;;;18.67;11.50;;;;;;;8.08;76.37;100950.31;5011277;28;20584;-69
2020/12/17 08:29:23;;;;;;;15.60;11.00;;;;;;;8.08;77.07;100933.53;5011095;28;20203;-69
2020/12/17 08:31:49;;;;;;;14.47;9.93;;;;;;;8.09;76.78;100936.13;5010251;28;20203;-70
2020/12/17 08:34:16;;;;;;;17.97;10.30;;;;;;;8.11;76.29;100954.59;5010175;28;20249;-70
2020/12/17 08:36:42;;;;;;;15.23;11.17;;;;;;;8.13;76.82;100940.34;5002464;28;20214;-69
2020/12/17 08:39:10;;;;;;;14.27;10.80;;;;;;;8.14;76.46;100939.41;5013534;28;20199;-69
2020/12/17 08:41:41;;;;;;;12.87;10.37;;;;;;;8.16;76.18;100931.38;5008751;28;20230;-67
2020/12/17 08:44:09;;;;;;;14.57;9.93;;;;;;;8.16;76.73;100932.25;5010811;28;20225;-70
2020/12/17 08:46:36;;;;;;;14.13;10.10;;;;;;;8.14;76.37;100931.44;5007726;28;20260;-70
2020/12/17 08:49:06;;;;;;;14.57;10.33;;;;;;;8.15;76.11;100935.81;5011120;28;20675;-70
2020/12/17 08:51:33;;;;;;;12.10;9.67;;;;;;;8.13;76.82;100943.00;5010406;28;20207;-67
2020/12/17 08:53:59;;;;;;;14.20;10.27;;;;;;;8.12;76.28;100943.94;5034426;22;20238;-66
2020/12/17 08:56:26;;;;;;;14.70;10.13;;;;;;;8.12;77.09;100945.72;5043078;28;20201;-66
2020/12/17 08:58:54;;;;;;;13.40;9.90;;;;;;;8.11;76.63;100957.25;5047108;28;20205;-66
2020/12/17 09:01:25;;;;;;;13.53;10.37;;;;;;;8.12;76.36;100967.81;5043871;28;20271;-66
2020/12/17 09:03:53;;;;;;;13.90;9.93;;;;;;;8.13;76.13;100976.63;5045014;28;20240;-66
2020/12/17 09:06:30;;;;;;;11.67;9.57;;;;;;;8.13;76.07;100982.78;5045884;28;20210;-66
2020/12/17 09:09:13;;;;;;;13.53;9.93;;;;;;;8.15;76.01;100985.38;5031901;28;20213;-66
2020/12/17 09:11:40;;;;;;;15.03;11.27;;;;;;;8.15;76.91;100980.06;5037076;28;20220;-66
2020/12/17 09:14:07;;;;;;;17.40;12.13;;;;;;;8.16;76.86;100989.75;5047044;28;20751;-66
2020/12/17 09:16:35;;;;;;;14.07;11.03;;;;;;;8.16;76.66;100985.31;5051912;28;20205;-66
2020/12/17 09:19:07;;;;;;;11.73;9.20;;;;;;;8.16;76.86;100985.31;5052229;28;20202;-65
2020/12/17 09:21:34;;;;;;;11.70;9.50;;;;;;;8.19;76.63;100985.16;5049786;28;20315;-66
2020/12/17 09:24:01;;;;;;;12.53;9.47;;;;;;;8.19;76.88;100993.13;5048741;28;20697;-66
2020/12/17 09:26:28;;;;;;;14.63;10.80;;;;;;;8.19;76.13;100993.13;5052973;28;20598;-66
2020/12/17 09:28:57;;;;;;;13.77;10.67;;;;;;;8.21;76.71;100993.03;5050798;28;20205;-64
2020/12/17 09:31:29;;;;;;;12.03;9.37;;;;;;;8.23;76.59;100992.03;5048052;28;20597;-66
2020/12/17 09:34:10;;;;;;;11.87;9.07;;;;;;;8.24;76.03;100988.44;5050175;28;20666;-66
2020/12/17 09:36:38;;;;;;;13.00;10.07;;;;;;;8.25;76.39;101003.41;5050115;28;20202;-65
2020/12/17 09:39:07;;;;;;;11.67;8.57;;;;;;;8.27;76.42;101009.50;5051459;28;20571;-66
2020/12/17 09:41:35;;;;;;;11.83;8.97;;;;;;;8.30;76.32;100996.09;5045119;28;20276;-66
2020/12/17 09:44:01;;;;;;;10.90;8.53;;;;;;;8.33;76.35;100996.00;5049233;28;20567;-66
2020/12/17 09:46:40;;;;;;;14.00;10.70;;;;;;;8.37;75.70;100991.41;5051782;28;20205;-66
2020/12/17 09:49:08;;;;;;;12.10;9.13;;;;;;;8.39;76.47;100991.34;5052090;28;20209;-65
2020/12/17 09:51:34;;;;;;;11.60;9.13;;;;;;;8.40;75.89;100993.06;5046862;28;20201;-66
2020/12/17 09:54:02;;;;;;;12.90;9.37;;;;;;;8.43;76.15;100990.22;5052359;28;20727;-65
2020/12/17 09:56:28;;;;;;;12.50;9.73;;;;;;;8.45;76.14;100985.69;5053268;28;20217;-66
2020/12/17 09:58:55;;;;;;;13.20;10.27;;;;;;;8.46;75.76;100998.91;5048607;28;20201;-66
2020/12/17 10:01:22;;;;;;;11.13;9.50;;;;;;;8.50;75.60;100997.81;5050727;28;20233;-65
2020/12/17 10:03:48;;;;;;;12.77;9.73;;;;;;;8.53;75.87;101002.13;5049472;28;20697;-65
2020/12/17 10:06:14;;;;;;;10.33;8.93;;;;;;;8.57;75.42;101007.22;5043930;28;20217;-66
2020/12/17 10:08:40;;;;;;;15.13;11.27;;;;;;;8.60;75.33;101011.47;5048723;28;20684;-66
2020/12/17 10:11:06;;;;;;;14.60;10.60;;;;;;;8.60;75.79;101007.03;5051775;28;20198;-66
2020/12/17 10:13:32;;;;;;;12.37;9.90;;;;;;;8.65;76.07;101009.47;5051906;28;20715;-66
2020/12/17 10:15:59;;;;;;;15.67;11.30;;;;;;;8.67;75.54;101013.78;5051165;28;20749;-66
2020/12/17 10:18:25;;;;;;;10.30;8.30;;;;;;;8.68;75.64;101022.59;5049974;28;20292;-65
2020/12/17 10:20:51;;;;;;;16.67;11.97;;;;;;;8.71;75.63;101019.81;5052355;28;20359;-65
2020/12/17 10:23:17;;;;;;;12.80;10.37;;;;;;;8.75;75.79;101018.72;5048461;28;20202;-66
2020/12/17 10:25:43;;;;;;;16.13;11.83;;;;;;;8.78;75.18;101015.06;5053316;28;20719;-66
2020/12/17 10:28:09;;;;;;;11.27;9.63;;;;;;;8.81;75.24;101023.69;5052113;28;20201;-66
2020/12/17 10:30:35;;;;;;;12.60;10.33;;;;;;;8.83;74.80;101016.53;5052307;28;20211;-66
2020/12/17 10:33:02;;;;;;;12.67;10.23;;;;;;;8.86;75.44;101019.03;5044792;28;20681;-66
2020/12/17 10:35:28;;;;;;;11.83;9.40;;;;;;;8.85;74.95;101022.63;5038335;28;20233;-66
2020/12/17 10:37:54;;;;;;;11.20;9.07;;;;;;;8.86;75.53;101013.72;5053664;28;20665;-66
2020/12/17 10:40:20;;;;;;;12.70;10.23;;;;;;;8.86;75.14;101019.03;5035104;28;20237;-67
2020/12/17 10:42:46;;;;;;;11.77;9.53;;;;;;;8.89;75.53;101029.50;5037931;28;20213;-66
2020/12/17 10:45:12;;;;;;;13.60;10.87;;;;;;;8.88;75.81;101032.22;5053838;28;20222;-67
2020/12/17 10:47:38;;;;;;;11.63;9.03;;;;;;;8.91;75.82;101045.38;5046242;28;20210;-66
2020/12/17 10:50:07;;;;;;;19.57;13.63;;;;;;;8.91;75.28;101040.06;5052053;28;20204;-66
2020/12/17 10:52:33;;;;;;;11.00;9.80;;;;;;;8.92;75.50;101044.44;5051177;28;20221;-66
2020/12/17 10:54:59;;;;;;;13.07;10.57;;;;;;;8.93;75.62;101041.69;5040193;28;20235;-66
2020/12/17 10:57:25;;;;;;;18.20;12.50;;;;;;;8.93;76.07;101044.34;5053473;28;20205;-66
2020/12/17 10:59:51;;;;;;;14.27;11.30;;;;;;;8.95;75.88;101049.59;5043403;28;20632;-65
2020/12/17 11:02:17;;;;;;;15.37;10.30;;;;;;;8.97;76.19;101053.00;5047224;28;20914;-65
2020/12/17 11:04:43;;;;;;;14.93;12.37;;;;;;;8.97;75.95;101058.31;5048725;28;20227;-64
2020/12/17 11:07:11;;;;;;;12.03;9.80;;;;;;;8.97;76.46;101056.53;5050375;28;20678;-66
2020/12/17 11:09:37;;;;;;;12.57;10.23;;;;;;;8.97;75.86;101058.31;5049174;28;20202;-65
2020/12/17 11:12:03;;;;;;;15.27;11.37;;;;;;;8.96;76.18;101062.78;5049457;28;20206;-65
2020/12/17 11:14:29;;;;;;;13.07;11.67;;;;;;;8.97;76.37;101053.88;5045464;28;20232;-65
2020/12/17 11:16:55;;;;;;;10.20;8.90;;;;;;;8.98;76.32;101058.25;5052848;28;20209;-66
2020/12/17 11:19:21;;;;;;;12.00;10.47;;;;;;;8.95;76.62;101066.41;5046619;28;20720;-66
2020/12/17 11:21:47;;;;;;;12.63;9.73;;;;;;;8.95;76.59;101066.41;5048923;28;20233;-66